sensor_id;sensor_type;location;lat;lon;timestamp;P1;durP1;ratioP1;P2;durP2;ratioP2
65759;SDS011;52496;51.082;5.066;2023-04-29T00:00:51;38.15;;;19.38;;
65759;SDS011;52496;51.082;5.066;2023-04-29T00:03:22;39.13;;;20.05;;
65759;SDS011;52496;51.082;5.066;2023-04-29T00:05:52;34.42;;;17.10;;
65759;SDS011;52496;51.082;5.066;2023-04-29T00:08:23;33.45;;;18.23;;
65759;SDS011;52496;51.082;5.066;2023-04-29T00:10:54;44.70;;;19.50;;
65759;SDS011;52496;51.082;5.066;2023-04-29T00:13:25;34.70;;;18.13;;
65759;SDS011;52496;51.082;5.066;2023-04-29T00:15:55;41.17;;;19.98;;
65759;SDS011;52496;51.082;5.066;2023-04-29T00:18:26;35.55;;;17.73;;
65759;SDS011;52496;51.082;5.066;2023-04-29T00:20:57;39.15;;;19.02;;
65759;SDS011;52496;51.082;5.066;2023-04-29T00:23:27;37.83;;;18.75;;
65759;SDS011;52496;51.082;5.066;2023-04-29T00:25:58;39.22;;;18.88;;
65759;SDS011;52496;51.082;5.066;2023-04-29T00:28:28;38.95;;;18.45;;
65759;SDS011;52496;51.082;5.066;2023-04-29T00:30:59;42.00;;;19.80;;
65759;SDS011;52496;51.082;5.066;2023-04-29T00:33:29;39.08;;;18.90;;
65759;SDS011;52496;51.082;5.066;2023-04-29T00:36:00;36.78;;;18.63;;
65759;SDS011;52496;51.082;5.066;2023-04-29T00:38:31;41.80;;;20.08;;
65759;SDS011;52496;51.082;5.066;2023-04-29T00:41:01;42.25;;;18.98;;
65759;SDS011;52496;51.082;5.066;2023-04-29T00:43:32;34.35;;;18.75;;
65759;SDS011;52496;51.082;5.066;2023-04-29T00:46:02;41.00;;;18.48;;
65759;SDS011;52496;51.082;5.066;2023-04-29T00:48:33;39.90;;;19.10;;
65759;SDS011;52496;51.082;5.066;2023-04-29T00:51:03;39.17;;;17.92;;
65759;SDS011;52496;51.082;5.066;2023-04-29T00:53:34;39.47;;;19.90;;
65759;SDS011;52496;51.082;5.066;2023-04-29T00:56:05;38.60;;;18.83;;
65759;SDS011;52496;51.082;5.066;2023-04-29T00:58:36;37.53;;;18.17;;
65759;SDS011;52496;51.082;5.066;2023-04-29T01:01:08;43.67;;;20.20;;
65759;SDS011;52496;51.082;5.066;2023-04-29T01:03:39;42.40;;;18.02;;
65759;SDS011;52496;51.082;5.066;2023-04-29T01:06:22;39.80;;;18.17;;
65759;SDS011;52496;51.082;5.066;2023-04-29T01:09:09;42.42;;;19.48;;
65759;SDS011;52496;51.082;5.066;2023-04-29T01:12:05;39.22;;;17.92;;
65759;SDS011;52496;51.082;5.066;2023-04-29T01:14:42;41.00;;;20.95;;
65759;SDS011;52496;51.082;5.066;2023-04-29T01:17:24;39.78;;;18.73;;
65759;SDS011;52496;51.082;5.066;2023-04-29T01:19:56;39.72;;;18.10;;
65759;SDS011;52496;51.082;5.066;2023-04-29T01:22:28;43.55;;;21.17;;
65759;SDS011;52496;51.082;5.066;2023-04-29T01:24:58;40.65;;;20.10;;
65759;SDS011;52496;51.082;5.066;2023-04-29T01:27:30;40.97;;;19.60;;
65759;SDS011;52496;51.082;5.066;2023-04-29T01:33:01;42.28;;;20.40;;
65759;SDS011;52496;51.082;5.066;2023-04-29T01:35:57;49.10;;;21.02;;
65759;SDS011;52496;51.082;5.066;2023-04-29T01:38:46;48.38;;;23.23;;
65759;SDS011;52496;51.082;5.066;2023-04-29T01:41:43;48.38;;;22.05;;
65759;SDS011;52496;51.082;5.066;2023-04-29T01:44:34;52.08;;;23.13;;
65759;SDS011;52496;51.082;5.066;2023-04-29T01:47:06;45.63;;;22.85;;
65759;SDS011;52496;51.082;5.066;2023-04-29T01:49:42;50.45;;;21.50;;
65759;SDS011;52496;51.082;5.066;2023-04-29T01:52:15;54.15;;;25.58;;
65759;SDS011;52496;51.082;5.066;2023-04-29T01:54:46;51.63;;;24.67;;
65759;SDS011;52496;51.082;5.066;2023-04-29T01:57:16;49.15;;;23.30;;
65759;SDS011;52496;51.082;5.066;2023-04-29T01:59:48;55.90;;;27.15;;
65759;SDS011;52496;51.082;5.066;2023-04-29T02:02:18;55.90;;;26.85;;
65759;SDS011;52496;51.082;5.066;2023-04-29T02:04:52;59.70;;;27.58;;
65759;SDS011;52496;51.082;5.066;2023-04-29T02:07:22;56.03;;;27.00;;
65759;SDS011;52496;51.082;5.066;2023-04-29T02:09:53;55.78;;;26.77;;
65759;SDS011;52496;51.082;5.066;2023-04-29T02:12:24;54.35;;;25.77;;
65759;SDS011;52496;51.082;5.066;2023-04-29T02:14:55;48.47;;;25.50;;
65759;SDS011;52496;51.082;5.066;2023-04-29T02:17:25;57.42;;;26.33;;
65759;SDS011;52496;51.082;5.066;2023-04-29T02:19:56;59.15;;;26.88;;
65759;SDS011;52496;51.082;5.066;2023-04-29T02:22:27;54.05;;;27.05;;
65759;SDS011;52496;51.082;5.066;2023-04-29T02:24:57;60.38;;;27.63;;
65759;SDS011;52496;51.082;5.066;2023-04-29T02:27:27;55.22;;;27.35;;
65759;SDS011;52496;51.082;5.066;2023-04-29T02:29:58;56.40;;;28.80;;
65759;SDS011;52496;51.082;5.066;2023-04-29T02:32:29;59.72;;;28.45;;
65759;SDS011;52496;51.082;5.066;2023-04-29T02:34:59;53.78;;;27.05;;
65759;SDS011;52496;51.082;5.066;2023-04-29T02:37:30;58.20;;;30.23;;
65759;SDS011;52496;51.082;5.066;2023-04-29T02:40:01;57.70;;;28.67;;
65759;SDS011;52496;51.082;5.066;2023-04-29T02:42:33;61.55;;;29.70;;
65759;SDS011;52496;51.082;5.066;2023-04-29T02:45:04;58.13;;;29.45;;
65759;SDS011;52496;51.082;5.066;2023-04-29T02:47:34;66.50;;;30.05;;
65759;SDS011;52496;51.082;5.066;2023-04-29T02:50:05;56.03;;;28.02;;
65759;SDS011;52496;51.082;5.066;2023-04-29T02:52:36;60.38;;;28.67;;
65759;SDS011;52496;51.082;5.066;2023-04-29T02:55:06;61.38;;;29.80;;
65759;SDS011;52496;51.082;5.066;2023-04-29T02:57:38;62.90;;;30.35;;
65759;SDS011;52496;51.082;5.066;2023-04-29T03:00:10;63.67;;;31.02;;
65759;SDS011;52496;51.082;5.066;2023-04-29T03:02:40;60.13;;;28.25;;
65759;SDS011;52496;51.082;5.066;2023-04-29T03:05:11;60.50;;;28.60;;
65759;SDS011;52496;51.082;5.066;2023-04-29T03:07:41;54.80;;;27.67;;
65759;SDS011;52496;51.082;5.066;2023-04-29T03:10:13;56.72;;;28.27;;
65759;SDS011;52496;51.082;5.066;2023-04-29T03:12:43;52.55;;;25.63;;
65759;SDS011;52496;51.082;5.066;2023-04-29T03:15:14;54.70;;;27.73;;
65759;SDS011;52496;51.082;5.066;2023-04-29T03:17:44;53.70;;;26.30;;
65759;SDS011;52496;51.082;5.066;2023-04-29T03:20:15;59.40;;;28.55;;
65759;SDS011;52496;51.082;5.066;2023-04-29T03:22:46;59.42;;;27.42;;
65759;SDS011;52496;51.082;5.066;2023-04-29T03:25:16;60.55;;;28.75;;
65759;SDS011;52496;51.082;5.066;2023-04-29T03:27:47;60.70;;;29.88;;
65759;SDS011;52496;51.082;5.066;2023-04-29T03:30:18;65.97;;;29.23;;
65759;SDS011;52496;51.082;5.066;2023-04-29T03:32:48;65.45;;;31.45;;
65759;SDS011;52496;51.082;5.066;2023-04-29T03:35:18;61.20;;;30.65;;
65759;SDS011;52496;51.082;5.066;2023-04-29T03:37:49;71.03;;;32.13;;
65759;SDS011;52496;51.082;5.066;2023-04-29T03:40:19;70.88;;;34.20;;
65759;SDS011;52496;51.082;5.066;2023-04-29T03:42:50;70.35;;;31.23;;
65759;SDS011;52496;51.082;5.066;2023-04-29T03:45:21;68.93;;;32.25;;
65759;SDS011;52496;51.082;5.066;2023-04-29T03:47:51;64.95;;;29.83;;
65759;SDS011;52496;51.082;5.066;2023-04-29T03:50:23;74.05;;;32.25;;
65759;SDS011;52496;51.082;5.066;2023-04-29T03:52:55;64.60;;;32.35;;
65759;SDS011;52496;51.082;5.066;2023-04-29T03:55:26;73.55;;;31.83;;
65759;SDS011;52496;51.082;5.066;2023-04-29T03:57:57;59.78;;;29.23;;
65759;SDS011;52496;51.082;5.066;2023-04-29T04:00:28;77.63;;;32.92;;
65759;SDS011;52496;51.082;5.066;2023-04-29T04:03:00;71.65;;;29.73;;
65759;SDS011;52496;51.082;5.066;2023-04-29T04:05:30;70.35;;;29.48;;
65759;SDS011;52496;51.082;5.066;2023-04-29T04:08:01;63.95;;;30.48;;
65759;SDS011;52496;51.082;5.066;2023-04-29T04:10:31;68.97;;;29.60;;
65759;SDS011;52496;51.082;5.066;2023-04-29T04:13:02;68.75;;;32.50;;
65759;SDS011;52496;51.082;5.066;2023-04-29T04:15:32;75.78;;;30.90;;
65759;SDS011;52496;51.082;5.066;2023-04-29T04:18:03;72.70;;;31.85;;
65759;SDS011;52496;51.082;5.066;2023-04-29T04:20:37;70.50;;;31.02;;
65759;SDS011;52496;51.082;5.066;2023-04-29T04:23:07;70.47;;;29.23;;
65759;SDS011;52496;51.082;5.066;2023-04-29T04:25:38;74.13;;;32.65;;
65759;SDS011;52496;51.082;5.066;2023-04-29T04:28:13;74.57;;;33.38;;
65759;SDS011;52496;51.082;5.066;2023-04-29T04:30:45;77.63;;;31.30;;
65759;SDS011;52496;51.082;5.066;2023-04-29T04:33:15;77.40;;;33.90;;
65759;SDS011;52496;51.082;5.066;2023-04-29T04:35:46;84.72;;;33.45;;
65759;SDS011;52496;51.082;5.066;2023-04-29T04:38:17;68.13;;;30.95;;
65759;SDS011;52496;51.082;5.066;2023-04-29T04:40:47;82.13;;;30.75;;
65759;SDS011;52496;51.082;5.066;2023-04-29T04:43:18;83.88;;;32.67;;
65759;SDS011;52496;51.082;5.066;2023-04-29T04:45:48;66.60;;;30.70;;
65759;SDS011;52496;51.082;5.066;2023-04-29T04:48:19;71.07;;;30.25;;
65759;SDS011;52496;51.082;5.066;2023-04-29T04:50:49;71.65;;;30.40;;
65759;SDS011;52496;51.082;5.066;2023-04-29T04:53:20;78.18;;;32.05;;
65759;SDS011;52496;51.082;5.066;2023-04-29T04:55:51;69.68;;;30.50;;
65759;SDS011;52496;51.082;5.066;2023-04-29T04:58:21;67.20;;;28.20;;
65759;SDS011;52496;51.082;5.066;2023-04-29T05:00:52;76.57;;;31.80;;
65759;SDS011;52496;51.082;5.066;2023-04-29T05:03:22;57.50;;;27.42;;
65759;SDS011;52496;51.082;5.066;2023-04-29T05:05:54;71.75;;;28.67;;
65759;SDS011;52496;51.082;5.066;2023-04-29T05:08:29;64.13;;;29.55;;
65759;SDS011;52496;51.082;5.066;2023-04-29T05:11:00;63.55;;;28.63;;
65759;SDS011;52496;51.082;5.066;2023-04-29T05:13:31;79.13;;;29.15;;
65759;SDS011;52496;51.082;5.066;2023-04-29T05:16:03;72.47;;;28.45;;
65759;SDS011;52496;51.082;5.066;2023-04-29T05:18:33;64.82;;;31.83;;
65759;SDS011;52496;51.082;5.066;2023-04-29T05:21:04;60.88;;;27.92;;
65759;SDS011;52496;51.082;5.066;2023-04-29T05:23:35;67.15;;;26.35;;
65759;SDS011;52496;51.082;5.066;2023-04-29T05:26:05;55.10;;;26.42;;
65759;SDS011;52496;51.082;5.066;2023-04-29T05:28:36;69.57;;;28.98;;
65759;SDS011;52496;51.082;5.066;2023-04-29T05:31:06;63.42;;;27.80;;
65759;SDS011;52496;51.082;5.066;2023-04-29T05:33:36;61.08;;;26.45;;
65759;SDS011;52496;51.082;5.066;2023-04-29T05:36:07;57.85;;;26.15;;
65759;SDS011;52496;51.082;5.066;2023-04-29T05:38:38;61.67;;;27.67;;
65759;SDS011;52496;51.082;5.066;2023-04-29T05:41:08;59.10;;;27.42;;
65759;SDS011;52496;51.082;5.066;2023-04-29T05:43:39;65.63;;;26.67;;
65759;SDS011;52496;51.082;5.066;2023-04-29T05:46:09;49.72;;;23.70;;
65759;SDS011;52496;51.082;5.066;2023-04-29T05:48:40;55.40;;;26.17;;
65759;SDS011;52496;51.082;5.066;2023-04-29T05:51:11;53.80;;;24.08;;
65759;SDS011;52496;51.082;5.066;2023-04-29T05:53:42;50.90;;;23.98;;
65759;SDS011;52496;51.082;5.066;2023-04-29T05:56:14;54.25;;;24.98;;
65759;SDS011;52496;51.082;5.066;2023-04-29T05:58:45;53.13;;;22.52;;
65759;SDS011;52496;51.082;5.066;2023-04-29T06:01:17;48.15;;;24.05;;
65759;SDS011;52496;51.082;5.066;2023-04-29T06:03:47;51.22;;;23.80;;
65759;SDS011;52496;51.082;5.066;2023-04-29T06:06:18;46.75;;;23.23;;
65759;SDS011;52496;51.082;5.066;2023-04-29T06:08:49;50.08;;;22.38;;
65759;SDS011;52496;51.082;5.066;2023-04-29T06:11:20;45.67;;;23.23;;
65759;SDS011;52496;51.082;5.066;2023-04-29T06:13:51;47.22;;;23.52;;
65759;SDS011;52496;51.082;5.066;2023-04-29T06:16:27;49.08;;;24.75;;
65759;SDS011;52496;51.082;5.066;2023-04-29T06:18:59;57.38;;;25.25;;
65759;SDS011;52496;51.082;5.066;2023-04-29T06:21:34;56.28;;;26.65;;
65759;SDS011;52496;51.082;5.066;2023-04-29T06:24:05;59.97;;;24.95;;
65759;SDS011;52496;51.082;5.066;2023-04-29T06:26:38;51.50;;;23.33;;
65759;SDS011;52496;51.082;5.066;2023-04-29T06:29:15;51.90;;;23.30;;
65759;SDS011;52496;51.082;5.066;2023-04-29T06:31:46;55.20;;;24.02;;
65759;SDS011;52496;51.082;5.066;2023-04-29T06:34:20;53.80;;;24.65;;
65759;SDS011;52496;51.082;5.066;2023-04-29T06:36:50;46.95;;;23.48;;
65759;SDS011;52496;51.082;5.066;2023-04-29T06:39:21;41.95;;;22.42;;
65759;SDS011;52496;51.082;5.066;2023-04-29T06:41:51;49.17;;;23.90;;
65759;SDS011;52496;51.082;5.066;2023-04-29T06:44:23;40.75;;;21.67;;
65759;SDS011;52496;51.082;5.066;2023-04-29T06:46:54;40.95;;;22.85;;
65759;SDS011;52496;51.082;5.066;2023-04-29T06:49:32;46.88;;;21.48;;
65759;SDS011;52496;51.082;5.066;2023-04-29T06:52:02;40.90;;;21.50;;
65759;SDS011;52496;51.082;5.066;2023-04-29T06:54:33;45.50;;;22.98;;
65759;SDS011;52496;51.082;5.066;2023-04-29T06:57:03;43.47;;;21.48;;
65759;SDS011;52496;51.082;5.066;2023-04-29T06:59:34;41.35;;;19.83;;
65759;SDS011;52496;51.082;5.066;2023-04-29T07:02:04;46.58;;;23.90;;
65759;SDS011;52496;51.082;5.066;2023-04-29T07:04:35;39.40;;;20.75;;
65759;SDS011;52496;51.082;5.066;2023-04-29T07:07:06;37.65;;;19.98;;
65759;SDS011;52496;51.082;5.066;2023-04-29T07:09:36;41.40;;;20.65;;
65759;SDS011;52496;51.082;5.066;2023-04-29T07:12:07;42.15;;;20.42;;
65759;SDS011;52496;51.082;5.066;2023-04-29T07:14:38;41.15;;;20.88;;
65759;SDS011;52496;51.082;5.066;2023-04-29T07:17:09;37.80;;;20.20;;
65759;SDS011;52496;51.082;5.066;2023-04-29T07:19:40;39.38;;;19.63;;
65759;SDS011;52496;51.082;5.066;2023-04-29T07:22:11;40.10;;;20.15;;
65759;SDS011;52496;51.082;5.066;2023-04-29T07:24:41;37.13;;;19.35;;
65759;SDS011;52496;51.082;5.066;2023-04-29T07:27:12;37.88;;;20.02;;
65759;SDS011;52496;51.082;5.066;2023-04-29T07:29:42;36.80;;;18.95;;
65759;SDS011;52496;51.082;5.066;2023-04-29T07:32:15;44.05;;;19.73;;
65759;SDS011;52496;51.082;5.066;2023-04-29T07:34:46;37.17;;;18.73;;
65759;SDS011;52496;51.082;5.066;2023-04-29T07:37:17;34.92;;;17.52;;
65759;SDS011;52496;51.082;5.066;2023-04-29T07:39:48;36.40;;;18.08;;
65759;SDS011;52496;51.082;5.066;2023-04-29T07:42:19;32.17;;;18.23;;
65759;SDS011;52496;51.082;5.066;2023-04-29T07:44:50;35.17;;;18.98;;
65759;SDS011;52496;51.082;5.066;2023-04-29T07:47:22;42.97;;;20.23;;
65759;SDS011;52496;51.082;5.066;2023-04-29T07:49:52;42.97;;;19.48;;
65759;SDS011;52496;51.082;5.066;2023-04-29T07:52:23;33.80;;;18.15;;
65759;SDS011;52496;51.082;5.066;2023-04-29T07:54:53;36.65;;;20.80;;
65759;SDS011;52496;51.082;5.066;2023-04-29T07:57:27;34.58;;;19.38;;
65759;SDS011;52496;51.082;5.066;2023-04-29T07:59:58;34.08;;;18.75;;
65759;SDS011;52496;51.082;5.066;2023-04-29T08:02:28;38.03;;;20.50;;
65759;SDS011;52496;51.082;5.066;2023-04-29T08:04:59;37.20;;;19.17;;
65759;SDS011;52496;51.082;5.066;2023-04-29T08:07:29;32.85;;;17.90;;
65759;SDS011;52496;51.082;5.066;2023-04-29T08:10:00;32.72;;;19.50;;
65759;SDS011;52496;51.082;5.066;2023-04-29T08:12:31;36.50;;;19.33;;
65759;SDS011;52496;51.082;5.066;2023-04-29T08:15:01;38.17;;;20.88;;
65759;SDS011;52496;51.082;5.066;2023-04-29T08:17:32;35.30;;;18.35;;
65759;SDS011;52496;51.082;5.066;2023-04-29T08:20:03;33.72;;;19.55;;
65759;SDS011;52496;51.082;5.066;2023-04-29T08:22:34;37.22;;;20.08;;
65759;SDS011;52496;51.082;5.066;2023-04-29T08:25:04;30.25;;;18.35;;
65759;SDS011;52496;51.082;5.066;2023-04-29T08:27:35;34.03;;;19.23;;
65759;SDS011;52496;51.082;5.066;2023-04-29T08:30:06;34.08;;;18.05;;
65759;SDS011;52496;51.082;5.066;2023-04-29T08:32:37;31.63;;;18.20;;
65759;SDS011;52496;51.082;5.066;2023-04-29T08:35:08;29.98;;;17.20;;
65759;SDS011;52496;51.082;5.066;2023-04-29T08:37:39;28.50;;;16.15;;
65759;SDS011;52496;51.082;5.066;2023-04-29T08:40:09;28.55;;;17.67;;
65759;SDS011;52496;51.082;5.066;2023-04-29T08:42:40;31.95;;;16.98;;
65759;SDS011;52496;51.082;5.066;2023-04-29T08:45:14;30.40;;;17.83;;
65759;SDS011;52496;51.082;5.066;2023-04-29T08:47:49;32.40;;;16.67;;
65759;SDS011;52496;51.082;5.066;2023-04-29T08:50:20;29.92;;;17.67;;
65759;SDS011;52496;51.082;5.066;2023-04-29T08:52:53;27.25;;;15.90;;
65759;SDS011;52496;51.082;5.066;2023-04-29T08:55:24;32.72;;;16.90;;
65759;SDS011;52496;51.082;5.066;2023-04-29T08:57:55;27.30;;;16.30;;
65759;SDS011;52496;51.082;5.066;2023-04-29T09:00:26;24.80;;;15.50;;
65759;SDS011;52496;51.082;5.066;2023-04-29T09:02:57;24.65;;;15.23;;
65759;SDS011;52496;51.082;5.066;2023-04-29T09:05:31;25.30;;;16.23;;
65759;SDS011;52496;51.082;5.066;2023-04-29T09:08:03;29.05;;;16.45;;
65759;SDS011;52496;51.082;5.066;2023-04-29T09:10:35;30.25;;;15.95;;
65759;SDS011;52496;51.082;5.066;2023-04-29T09:13:06;22.27;;;14.02;;
65759;SDS011;52496;51.082;5.066;2023-04-29T09:15:37;24.50;;;14.40;;
65759;SDS011;52496;51.082;5.066;2023-04-29T09:18:10;26.00;;;14.95;;
65759;SDS011;52496;51.082;5.066;2023-04-29T09:20:40;24.58;;;14.93;;
65759;SDS011;52496;51.082;5.066;2023-04-29T09:23:11;24.90;;;15.65;;
65759;SDS011;52496;51.082;5.066;2023-04-29T09:25:52;26.90;;;16.77;;
65759;SDS011;52496;51.082;5.066;2023-04-29T09:28:25;23.83;;;13.30;;
65759;SDS011;52496;51.082;5.066;2023-04-29T09:30:56;24.38;;;14.48;;
65759;SDS011;52496;51.082;5.066;2023-04-29T09:33:26;24.45;;;14.95;;
65759;SDS011;52496;51.082;5.066;2023-04-29T09:36:00;27.70;;;15.38;;
65759;SDS011;52496;51.082;5.066;2023-04-29T09:38:30;26.70;;;15.65;;
65759;SDS011;52496;51.082;5.066;2023-04-29T09:41:02;21.08;;;14.23;;
65759;SDS011;52496;51.082;5.066;2023-04-29T09:43:41;22.63;;;14.75;;
65759;SDS011;52496;51.082;5.066;2023-04-29T09:46:11;25.10;;;15.07;;
65759;SDS011;52496;51.082;5.066;2023-04-29T09:48:42;24.23;;;14.82;;
65759;SDS011;52496;51.082;5.066;2023-04-29T09:51:13;23.67;;;14.25;;
65759;SDS011;52496;51.082;5.066;2023-04-29T09:53:44;28.65;;;13.93;;
65759;SDS011;52496;51.082;5.066;2023-04-29T09:56:15;23.27;;;13.23;;
65759;SDS011;52496;51.082;5.066;2023-04-29T09:58:45;22.35;;;13.60;;
65759;SDS011;52496;51.082;5.066;2023-04-29T10:01:16;25.42;;;14.00;;
65759;SDS011;52496;51.082;5.066;2023-04-29T10:03:49;21.75;;;13.13;;
65759;SDS011;52496;51.082;5.066;2023-04-29T10:06:24;22.73;;;13.20;;
65759;SDS011;52496;51.082;5.066;2023-04-29T10:08:54;20.98;;;12.60;;
65759;SDS011;52496;51.082;5.066;2023-04-29T10:11:26;24.63;;;13.98;;
65759;SDS011;52496;51.082;5.066;2023-04-29T10:13:56;22.50;;;12.32;;
65759;SDS011;52496;51.082;5.066;2023-04-29T10:16:29;21.45;;;13.38;;
65759;SDS011;52496;51.082;5.066;2023-04-29T10:19:03;21.40;;;13.05;;
65759;SDS011;52496;51.082;5.066;2023-04-29T10:21:40;18.45;;;12.23;;
65759;SDS011;52496;51.082;5.066;2023-04-29T10:24:11;23.00;;;13.20;;
65759;SDS011;52496;51.082;5.066;2023-04-29T10:26:43;23.23;;;13.40;;
65759;SDS011;52496;51.082;5.066;2023-04-29T10:29:16;23.20;;;12.55;;
65759;SDS011;52496;51.082;5.066;2023-04-29T10:31:46;21.50;;;12.65;;
65759;SDS011;52496;51.082;5.066;2023-04-29T10:34:19;24.40;;;12.90;;
65759;SDS011;52496;51.082;5.066;2023-04-29T10:36:49;23.13;;;13.05;;
65759;SDS011;52496;51.082;5.066;2023-04-29T10:39:23;19.05;;;12.48;;
65759;SDS011;52496;51.082;5.066;2023-04-29T10:42:02;23.65;;;12.52;;
65759;SDS011;52496;51.082;5.066;2023-04-29T10:53:17;17.20;;;11.18;;
65759;SDS011;52496;51.082;5.066;2023-04-29T10:55:53;16.15;;;10.23;;
65759;SDS011;52496;51.082;5.066;2023-04-29T11:01:15;16.58;;;10.50;;
65759;SDS011;52496;51.082;5.066;2023-04-29T11:09:13;17.38;;;10.73;;
65759;SDS011;52496;51.082;5.066;2023-04-29T11:12:04;20.42;;;11.25;;
65759;SDS011;52496;51.082;5.066;2023-04-29T11:14:41;16.65;;;11.32;;
65759;SDS011;52496;51.082;5.066;2023-04-29T11:17:13;18.25;;;11.27;;
65759;SDS011;52496;51.082;5.066;2023-04-29T11:19:46;18.73;;;11.25;;
65759;SDS011;52496;51.082;5.066;2023-04-29T11:25:00;16.45;;;10.57;;
65759;SDS011;52496;51.082;5.066;2023-04-29T11:27:39;16.20;;;11.90;;
65759;SDS011;52496;51.082;5.066;2023-04-29T11:30:11;15.90;;;10.15;;
65759;SDS011;52496;51.082;5.066;2023-04-29T11:32:42;22.05;;;11.10;;
65759;SDS011;52496;51.082;5.066;2023-04-29T11:35:14;15.70;;;10.98;;
65759;SDS011;52496;51.082;5.066;2023-04-29T11:37:45;15.55;;;10.68;;
65759;SDS011;52496;51.082;5.066;2023-04-29T11:40:16;15.57;;;10.00;;
65759;SDS011;52496;51.082;5.066;2023-04-29T11:42:47;15.30;;;9.70;;
65759;SDS011;52496;51.082;5.066;2023-04-29T11:45:18;12.80;;;8.73;;
65759;SDS011;52496;51.082;5.066;2023-04-29T11:47:49;15.48;;;9.35;;
65759;SDS011;52496;51.082;5.066;2023-04-29T11:50:20;22.23;;;9.25;;
65759;SDS011;52496;51.082;5.066;2023-04-29T11:52:50;15.13;;;9.65;;
65759;SDS011;52496;51.082;5.066;2023-04-29T11:55:21;14.52;;;8.90;;
65759;SDS011;52496;51.082;5.066;2023-04-29T11:57:53;13.70;;;8.68;;
65759;SDS011;52496;51.082;5.066;2023-04-29T12:00:24;14.75;;;9.35;;
65759;SDS011;52496;51.082;5.066;2023-04-29T12:02:54;15.00;;;9.48;;
65759;SDS011;52496;51.082;5.066;2023-04-29T12:05:28;14.55;;;9.18;;
65759;SDS011;52496;51.082;5.066;2023-04-29T12:07:59;16.10;;;9.63;;
65759;SDS011;52496;51.082;5.066;2023-04-29T12:10:34;14.88;;;9.30;;
65759;SDS011;52496;51.082;5.066;2023-04-29T12:13:06;13.63;;;9.20;;
65759;SDS011;52496;51.082;5.066;2023-04-29T12:15:38;13.82;;;9.52;;
65759;SDS011;52496;51.082;5.066;2023-04-29T12:18:09;12.80;;;9.07;;
65759;SDS011;52496;51.082;5.066;2023-04-29T12:20:40;12.52;;;8.55;;
65759;SDS011;52496;51.082;5.066;2023-04-29T12:23:14;15.25;;;8.35;;
65759;SDS011;52496;51.082;5.066;2023-04-29T12:28:22;13.98;;;8.38;;
65759;SDS011;52496;51.082;5.066;2023-04-29T12:30:54;13.52;;;9.10;;
65759;SDS011;52496;51.082;5.066;2023-04-29T12:33:25;13.52;;;8.32;;
65759;SDS011;52496;51.082;5.066;2023-04-29T12:35:58;12.68;;;8.27;;
65759;SDS011;52496;51.082;5.066;2023-04-29T12:38:29;16.13;;;9.00;;
65759;SDS011;52496;51.082;5.066;2023-04-29T12:41:00;13.35;;;7.90;;
65759;SDS011;52496;51.082;5.066;2023-04-29T12:43:31;12.18;;;8.20;;
65759;SDS011;52496;51.082;5.066;2023-04-29T12:46:06;11.15;;;7.20;;
65759;SDS011;52496;51.082;5.066;2023-04-29T12:48:37;12.40;;;7.40;;
65759;SDS011;52496;51.082;5.066;2023-04-29T12:51:15;12.55;;;7.72;;
65759;SDS011;52496;51.082;5.066;2023-04-29T12:53:45;12.48;;;8.20;;
65759;SDS011;52496;51.082;5.066;2023-04-29T12:56:18;12.95;;;8.25;;
65759;SDS011;52496;51.082;5.066;2023-04-29T12:58:49;13.00;;;8.30;;
65759;SDS011;52496;51.082;5.066;2023-04-29T13:01:19;12.93;;;8.50;;
65759;SDS011;52496;51.082;5.066;2023-04-29T13:03:50;12.35;;;8.35;;
65759;SDS011;52496;51.082;5.066;2023-04-29T13:06:20;13.02;;;8.00;;
65759;SDS011;52496;51.082;5.066;2023-04-29T13:08:51;13.80;;;9.57;;
65759;SDS011;52496;51.082;5.066;2023-04-29T13:11:21;13.73;;;8.98;;
65759;SDS011;52496;51.082;5.066;2023-04-29T13:13:52;11.98;;;7.93;;
65759;SDS011;52496;51.082;5.066;2023-04-29T13:16:22;12.55;;;7.00;;
65759;SDS011;52496;51.082;5.066;2023-04-29T13:18:54;12.35;;;6.93;;
65759;SDS011;52496;51.082;5.066;2023-04-29T13:21:26;12.43;;;7.47;;
65759;SDS011;52496;51.082;5.066;2023-04-29T13:23:57;12.68;;;6.97;;
65759;SDS011;52496;51.082;5.066;2023-04-29T13:26:27;14.63;;;8.57;;
65759;SDS011;52496;51.082;5.066;2023-04-29T13:28:58;12.75;;;6.57;;
65759;SDS011;52496;51.082;5.066;2023-04-29T13:31:28;11.20;;;6.85;;
65759;SDS011;52496;51.082;5.066;2023-04-29T13:33:59;11.43;;;7.55;;
65759;SDS011;52496;51.082;5.066;2023-04-29T13:36:29;13.60;;;7.35;;
65759;SDS011;52496;51.082;5.066;2023-04-29T13:39:00;13.13;;;6.85;;
65759;SDS011;52496;51.082;5.066;2023-04-29T13:41:30;13.32;;;7.22;;
65759;SDS011;52496;51.082;5.066;2023-04-29T13:44:01;15.65;;;6.63;;
65759;SDS011;52496;51.082;5.066;2023-04-29T13:46:32;10.45;;;6.95;;
65759;SDS011;52496;51.082;5.066;2023-04-29T13:49:03;13.80;;;7.97;;
65759;SDS011;52496;51.082;5.066;2023-04-29T13:51:34;13.50;;;8.10;;
65759;SDS011;52496;51.082;5.066;2023-04-29T13:54:05;12.07;;;7.00;;
65759;SDS011;52496;51.082;5.066;2023-04-29T13:56:35;11.82;;;7.28;;
65759;SDS011;52496;51.082;5.066;2023-04-29T13:59:06;12.43;;;7.88;;
65759;SDS011;52496;51.082;5.066;2023-04-29T14:01:36;10.65;;;6.80;;
65759;SDS011;52496;51.082;5.066;2023-04-29T14:04:07;17.42;;;8.40;;
65759;SDS011;52496;51.082;5.066;2023-04-29T14:06:38;10.82;;;6.72;;
65759;SDS011;52496;51.082;5.066;2023-04-29T14:09:08;10.85;;;6.75;;
65759;SDS011;52496;51.082;5.066;2023-04-29T14:11:39;9.05;;;6.40;;
65759;SDS011;52496;51.082;5.066;2023-04-29T14:14:10;10.65;;;6.80;;
65759;SDS011;52496;51.082;5.066;2023-04-29T14:16:41;11.27;;;7.10;;
65759;SDS011;52496;51.082;5.066;2023-04-29T14:19:12;12.57;;;6.82;;
65759;SDS011;52496;51.082;5.066;2023-04-29T14:21:42;10.80;;;7.10;;
65759;SDS011;52496;51.082;5.066;2023-04-29T14:24:13;9.18;;;6.45;;
65759;SDS011;52496;51.082;5.066;2023-04-29T14:26:47;10.65;;;7.28;;
65759;SDS011;52496;51.082;5.066;2023-04-29T14:29:17;11.63;;;6.75;;
65759;SDS011;52496;51.082;5.066;2023-04-29T14:31:48;12.00;;;7.72;;
65759;SDS011;52496;51.082;5.066;2023-04-29T14:34:18;10.23;;;6.82;;
65759;SDS011;52496;51.082;5.066;2023-04-29T14:36:49;16.65;;;7.88;;
65759;SDS011;52496;51.082;5.066;2023-04-29T14:39:20;10.10;;;6.40;;
65759;SDS011;52496;51.082;5.066;2023-04-29T14:41:50;11.07;;;7.18;;
65759;SDS011;52496;51.082;5.066;2023-04-29T14:44:21;10.13;;;6.93;;
65759;SDS011;52496;51.082;5.066;2023-04-29T14:46:52;10.23;;;6.13;;
65759;SDS011;52496;51.082;5.066;2023-04-29T14:49:22;9.10;;;5.88;;
65759;SDS011;52496;51.082;5.066;2023-04-29T14:51:53;10.98;;;7.03;;
65759;SDS011;52496;51.082;5.066;2023-04-29T14:54:24;10.70;;;6.55;;
65759;SDS011;52496;51.082;5.066;2023-04-29T14:56:57;9.95;;;6.68;;
65759;SDS011;52496;51.082;5.066;2023-04-29T14:59:27;10.75;;;6.85;;
65759;SDS011;52496;51.082;5.066;2023-04-29T15:01:59;11.98;;;7.22;;
65759;SDS011;52496;51.082;5.066;2023-04-29T15:04:29;10.48;;;6.13;;
65759;SDS011;52496;51.082;5.066;2023-04-29T15:07:00;8.80;;;5.93;;
65759;SDS011;52496;51.082;5.066;2023-04-29T15:09:31;11.25;;;6.25;;
65759;SDS011;52496;51.082;5.066;2023-04-29T15:12:01;8.38;;;5.55;;
65759;SDS011;52496;51.082;5.066;2023-04-29T15:14:33;13.18;;;7.50;;
65759;SDS011;52496;51.082;5.066;2023-04-29T15:17:04;10.90;;;6.10;;